Time;durP1;ratioP1;P1;durP2;ratioP2;P2;SDS_P1;SDS_P2;PMS_P1;PMS_P2;Temp;Humidity;BMP_temperature;BMP_pressure;BME280_temperature;BME280_humidity;BME280_pressure;Samples;Min_cycle;Max_cycle;Signal;HPM_P1;HPM_P2
2022/04/02 00:01:20;;;;;;;3.80;2.47;;;17.40;57.40;;;;;;5103950;27;45225;-77
2022/04/02 00:03:49;;;;;;;4.22;2.53;;;17.40;57.20;;;;;;5105230;27;46063;-77
2022/04/02 00:06:15;;;;;;;4.07;2.60;;;17.40;57.40;;;;;;5106851;27;45172;-77
2022/04/02 00:08:42;;;;;;;4.90;2.20;;;17.40;58.10;;;;;;5107166;27;45293;-77
2022/04/02 00:11:09;;;;;;;2.70;1.88;;;17.40;59.80;;;;;;5106729;27;45473;-77
2022/04/02 00:13:36;;;;;;;3.13;2.10;;;17.40;59.60;;;;;;5111466;27;47440;-77
2022/04/02 00:16:04;;;;;;;2.45;2.03;;;17.50;59.80;;;;;;5110260;27;45168;-77
2022/04/02 00:18:31;;;;;;;3.92;2.20;;;17.50;60.20;;;;;;5102973;27;45364;-77
2022/04/02 00:21:00;;;;;;;3.05;2.22;;;17.50;59.30;;;;;;5107765;27;45467;-77
2022/04/02 00:23:40;;;;;;;3.53;2.30;;;17.50;60.10;;;;;;5109845;27;47424;-77
2022/04/02 00:26:07;;;;;;;5.00;2.15;;;17.50;59.30;;;;;;5109782;27;45166;-77
2022/04/02 00:28:36;;;;;;;4.55;2.50;;;17.50;59.50;;;;;;5110084;27;45294;-77
2022/04/02 00:31:03;;;;;;;2.63;2.00;;;17.50;59.80;;;;;;5108250;27;45848;-77
2022/04/02 00:33:30;;;;;;;3.15;1.88;;;17.50;59.50;;;;;;5106948;27;46233;-77
2022/04/02 00:35:56;;;;;;;4.97;2.33;;;17.50;59.80;;;;;;5107403;27;45263;-76
2022/04/02 00:38:25;;;;;;;2.50;1.90;;;17.50;59.70;;;;;;5109928;27;45220;-77
2022/04/02 00:40:51;;;;;;;4.03;2.15;;;17.50;59.40;;;;;;5100333;27;45364;-76
2022/04/02 00:43:26;;;;;;;3.03;1.88;;;17.50;58.80;;;;;;5108460;27;46209;-77
2022/04/02 00:45:53;;;;;;;3.08;1.75;;;17.50;57.80;;;;;;5109957;27;45155;-77
2022/04/02 00:48:22;;;;;;;2.75;1.80;;;17.50;56.50;;;;;;5108965;27;45286;-77
2022/04/02 00:50:52;;;;;;;3.25;1.83;;;17.50;56.70;;;;;;5109013;27;45386;-77
2022/04/02 00:53:19;;;;;;;2.22;1.58;;;17.50;55.80;;;;;;5110586;27;46168;-77
2022/04/02 00:55:48;;;;;;;3.65;1.92;;;17.40;56.60;;;;;;5111942;27;45214;-77
2022/04/02 00:58:16;;;;;;;2.60;1.70;;;17.40;54.80;;;;;;5101696;27;45285;-77
2022/04/02 01:00:43;;;;;;;2.80;1.70;;;17.40;54.90;;;;;;5110405;27;45328;-77
2022/04/02 01:03:11;;;;;;;1.85;1.48;;;17.40;55.80;;;;;;5108010;27;45960;-77
2022/04/02 01:05:38;;;;;;;3.08;1.50;;;17.40;55.30;;;;;;5109330;27;45283;-77
2022/04/02 01:08:06;;;;;;;3.33;1.63;;;17.40;55.40;;;;;;5107680;27;45389;-77
2022/04/02 01:10:33;;;;;;;2.50;1.60;;;17.40;55.30;;;;;;5107342;27;45282;-77
2022/04/02 01:13:01;;;;;;;2.58;1.70;;;17.40;55.00;;;;;;5101800;27;46541;-77
2022/04/02 01:15:29;;;;;;;3.65;1.50;;;17.40;54.60;;;;;;5106719;27;45291;-77
2022/04/02 01:17:56;;;;;;;1.92;1.33;;;17.40;54.80;;;;;;5106112;27;45209;-77
2022/04/02 01:20:24;;;;;;;4.00;1.70;;;17.40;57.10;;;;;;5105729;27;45231;-77
2022/04/02 01:22:52;;;;;;;2.70;1.45;;;17.40;58.50;;;;;;5108095;27;47961;-77
2022/04/02 01:25:19;;;;;;;1.67;1.30;;;17.50;58.70;;;;;;5108442;27;45350;-77
2022/04/02 01:27:47;;;;;;;1.80;1.20;;;17.50;58.20;;;;;;5105316;27;46080;-77
2022/04/02 01:30:14;;;;;;;2.08;1.35;;;17.50;59.10;;;;;;5107422;27;45180;-77
2022/04/02 01:32:42;;;;;;;3.13;1.50;;;17.60;59.00;;;;;;5108870;27;46379;-77
2022/04/02 01:35:10;;;;;;;1.52;1.17;;;17.60;58.80;;;;;;5108348;27;45628;-77
2022/04/02 01:37:38;;;;;;;2.03;1.10;;;17.60;58.60;;;;;;5109846;27;45305;-77
2022/04/02 01:40:08;;;;;;;1.50;1.30;;;17.60;57.50;;;;;;5109082;27;45475;-77
2022/04/02 01:42:35;;;;;;;3.95;1.30;;;17.60;58.60;;;;;;5108949;27;47197;-77
2022/04/02 01:45:02;;;;;;;3.08;1.30;;;17.60;58.80;;;;;;5106459;27;45169;-77
2022/04/02 01:47:29;;;;;;;1.45;1.10;;;17.60;58.80;;;;;;5108456;27;45510;-77
2022/04/02 01:49:56;;;;;;;1.63;1.40;;;17.60;58.50;;;;;;5102802;27;45282;-78
2022/04/02 01:52:23;;;;;;;5.10;1.30;;;17.60;58.10;;;;;;5108333;27;46235;-78
2022/04/02 01:54:50;;;;;;;4.93;1.30;;;17.60;57.70;;;;;;5109404;27;45189;-78
2022/04/02 01:57:19;;;;;;;1.75;1.30;;;17.60;57.70;;;;;;5108212;27;45307;-78
2022/04/02 01:59:48;;;;;;;2.80;1.20;;;17.60;57.20;;;;;;5108406;27;45499;-78
2022/04/02 02:02:15;;;;;;;2.35;1.20;;;17.60;59.70;;;;;;5111562;27;47375;-78
2022/04/02 02:04:42;;;;;;;1.70;1.00;;;17.60;58.30;;;;;;5118808;27;46020;-78
2022/04/02 02:07:09;;;;;;;1.25;0.90;;;17.50;56.60;;;;;;5108572;27;45083;-78
2022/04/02 02:09:36;;;;;;;1.98;1.00;;;17.50;54.80;;;;;;5108241;27;45287;-78
2022/04/02 02:12:04;;;;;;;2.97;1.00;;;17.50;54.80;;;;;;5108145;27;47392;-78
2022/04/02 02:14:32;;;;;;;1.42;1.10;;;17.50;53.00;;;;;;5107223;27;45369;-77
2022/04/02 02:16:58;;;;;;;0.77;0.75;;;17.40;52.70;;;;;;5108636;27;45171;-79
2022/04/02 02:19:25;;;;;;;1.35;0.82;;;17.40;53.90;;;;;;5105092;27;45131;-78
2022/04/02 02:21:52;;;;;;;1.58;1.00;;;17.40;53.60;;;;;;5102427;27;45297;-78
2022/04/02 02:24:20;;;;;;;0.93;0.80;;;17.40;54.50;;;;;;5105554;27;45744;-78
2022/04/02 02:26:47;;;;;;;1.20;0.90;;;17.40;55.60;;;;;;5106745;27;45340;-78
2022/04/02 02:29:13;;;;;;;1.77;1.10;;;17.40;56.50;;;;;;5102691;27;45372;-78
2022/04/02 02:31:41;;;;;;;1.92;0.90;;;17.50;56.70;;;;;;5099154;27;47258;-78
2022/04/02 02:36:53;;;;;;;1.17;0.88;;;17.50;57.00;;;;;;5102732;27;45195;-78
2022/04/02 02:39:19;;;;;;;1.15;0.80;;;17.50;56.60;;;;;;5096532;27;45194;-78
2022/04/02 02:41:46;;;;;;;1.20;0.75;;;17.60;56.40;;;;;;5106955;27;46559;-78
2022/04/02 02:44:13;;;;;;;0.80;0.68;;;17.50;56.20;;;;;;5107261;27;45806;-78
2022/04/02 02:46:42;;;;;;;0.80;0.70;;;17.50;55.00;;;;;;5108679;27;45197;-78
2022/04/02 02:49:08;;;;;;;1.38;0.70;;;17.50;55.50;;;;;;5106890;27;45233;-78
2022/04/02 02:51:36;;;;;;;3.42;0.93;;;17.50;56.30;;;;;;5108846;27;47385;-78
2022/04/02 02:54:03;;;;;;;1.08;0.70;;;17.50;54.30;;;;;;5105530;27;45217;-78
2022/04/02 02:56:29;;;;;;;1.27;0.80;;;17.50;54.00;;;;;;5107484;27;45289;-78
2022/04/02 02:58:56;;;;;;;2.50;0.73;;;17.50;54.10;;;;;;5106850;27;45172;-78
2022/04/02 03:01:23;;;;;;;1.13;0.70;;;17.40;53.60;;;;;;5096301;27;47955;-79
2022/04/02 03:03:51;;;;;;;1.45;0.85;;;17.40;54.80;;;;;;5106879;27;45263;-78
2022/04/02 03:06:18;;;;;;;2.50;0.90;;;17.40;53.90;;;;;;5108342;27;45273;-79
2022/04/02 03:08:44;;;;;;;0.88;0.65;;;17.40;53.30;;;;;;5107953;27;45249;-78
2022/04/02 03:11:11;;;;;;;1.23;0.70;;;17.50;55.70;;;;;;5107718;27;47990;-78
2022/04/02 03:13:39;;;;;;;1.02;0.80;;;17.50;56.40;;;;;;5111572;27;45183;-78
2022/04/02 03:16:06;;;;;;;1.42;0.73;;;17.50;55.70;;;;;;5112100;27;46234;-78
2022/04/02 03:18:33;;;;;;;0.82;0.70;;;17.50;55.60;;;;;;5106079;27;45210;-78
2022/04/02 03:21:02;;;;;;;1.40;0.90;;;17.50;55.50;;;;;;5107122;27;46323;-78
2022/04/02 03:23:29;;;;;;;1.50;0.75;;;17.50;55.60;;;;;;5105175;27;45808;-79
2022/04/02 03:25:56;;;;;;;2.42;1.00;;;17.50;55.60;;;;;;5108457;27;45161;-78
2022/04/02 03:28:22;;;;;;;1.05;0.73;;;17.50;55.50;;;;;;5107260;27;45495;-78
2022/04/02 03:30:49;;;;;;;0.90;0.80;;;17.50;55.50;;;;;;5104858;27;46559;-78
2022/04/02 03:33:18;;;;;;;1.55;0.75;;;17.50;54.50;;;;;;5107005;27;45155;-78
2022/04/02 03:35:45;;;;;;;1.30;0.80;;;17.50;54.80;;;;;;5107628;27;45284;-78
2022/04/02 03:38:13;;;;;;;1.98;0.90;;;17.50;54.50;;;;;;5105750;27;45259;-78
2022/04/02 03:40:41;;;;;;;0.90;0.70;;;17.50;52.90;;;;;;5106696;27;45230;-78
2022/04/02 03:43:08;;;;;;;1.42;0.60;;;17.50;53.80;;;;;;5105384;27;45091;-78
2022/04/02 03:45:35;;;;;;;1.33;0.90;;;17.40;51.60;;;;;;5106901;27;45242;-78
2022/04/02 03:48:01;;;;;;;1.40;0.77;;;17.50;53.20;;;;;;5108873;27;45565;-78
2022/04/02 03:50:28;;;;;;;1.15;0.60;;;17.50;52.10;;;;;;5106690;27;46638;-78
2022/04/02 03:52:55;;;;;;;2.97;0.70;;;17.50;51.80;;;;;;5109902;27;45135;-78
2022/04/02 03:55:23;;;;;;;0.93;0.70;;;17.40;51.60;;;;;;5108897;27;45217;-78
2022/04/02 03:57:50;;;;;;;1.13;0.93;;;17.40;51.60;;;;;;5110033;27;45375;-78
2022/04/02 04:00:19;;;;;;;1.15;0.60;;;17.50;52.30;;;;;;5110809;27;47041;-78
2022/04/02 04:02:46;;;;;;;1.60;0.90;;;17.40;54.00;;;;;;5110315;27;45275;-78
2022/04/02 04:05:13;;;;;;;1.08;0.70;;;17.50;54.80;;;;;;5109436;27;45245;-78
2022/04/02 04:07:40;;;;;;;1.13;0.60;;;17.50;53.70;;;;;;5111867;27;45461;-78
2022/04/02 04:10:07;;;;;;;0.75;0.57;;;17.50;54.00;;;;;;5109875;27;46223;-78
2022/04/02 04:12:36;;;;;;;1.23;0.75;;;17.50;54.20;;;;;;5109728;27;45285;-78
2022/04/02 04:15:03;;;;;;;0.63;0.45;;;17.50;54.70;;;;;;5110742;27;45475;-78
2022/04/02 04:17:30;;;;;;;1.50;0.80;;;17.50;54.10;;;;;;5109006;27;45221;-78
2022/04/02 04:19:57;;;;;;;1.38;0.77;;;17.50;53.60;;;;;;5106835;27;47462;-78
2022/04/02 04:22:23;;;;;;;0.80;0.70;;;17.50;53.80;;;;;;5110805;27;45274;-78
2022/04/02 04:24:50;;;;;;;0.60;0.50;;;17.50;53.20;;;;;;5119832;27;45345;-78
2022/04/02 04:27:17;;;;;;;1.25;0.60;;;17.50;52.20;;;;;;5115926;27;45331;-78
2022/04/02 04:29:45;;;;;;;0.93;0.70;;;17.50;51.80;;;;;;5104964;27;46313;-78
2022/04/02 04:32:12;;;;;;;2.10;0.65;;;17.50;51.80;;;;;;5108848;27;45457;-78
2022/04/02 04:34:40;;;;;;;1.23;0.70;;;17.40;51.60;;;;;;5111158;27;45241;-78
2022/04/02 04:37:07;;;;;;;1.08;0.70;;;17.40;50.40;;;;;;5109277;27;45456;-78
2022/04/02 04:39:34;;;;;;;0.98;0.60;;;17.50;50.30;;;;;;5109483;27;45162;-78
2022/04/02 04:42:01;;;;;;;0.75;0.60;;;17.40;48.80;;;;;;5109549;27;45217;-78
2022/04/02 04:44:27;;;;;;;1.95;0.57;;;17.40;47.50;;;;;;5110941;27;45237;-78
2022/04/02 04:46:55;;;;;;;1.67;0.75;;;17.40;48.50;;;;;;5106861;27;45824;-78
2022/04/02 04:49:22;;;;;;;1.67;0.75;;;17.50;49.20;;;;;;5107455;27;46607;-78
2022/04/02 04:51:49;;;;;;;1.40;0.60;;;17.40;48.50;;;;;;5110710;27;45445;-78
2022/04/02 04:54:16;;;;;;;0.75;0.60;;;17.40;48.50;;;;;;5106180;27;45245;-78
2022/04/02 04:56:42;;;;;;;0.80;0.60;;;17.50;51.00;;;;;;5106038;27;45201;-78
2022/04/02 04:59:09;;;;;;;1.00;0.70;;;17.50;51.80;;;;;;5098697;27;46494;-78
2022/04/02 05:01:36;;;;;;;0.80;0.60;;;17.50;53.70;;;;;;5108243;27;45261;-78
2022/04/02 05:04:05;;;;;;;1.75;0.60;;;17.50;53.80;;;;;;5109466;27;45539;-78
2022/04/02 05:06:32;;;;;;;0.45;0.40;;;17.50;53.60;;;;;;5107205;27;45273;-78
2022/04/02 05:08:59;;;;;;;1.30;0.60;;;17.50;52.50;;;;;;5107393;27;47227;-78
2022/04/02 05:11:26;;;;;;;0.70;0.50;;;17.50;53.40;;;;;;5105892;27;45509;-79
2022/04/02 05:13:53;;;;;;;0.85;0.50;;;17.50;53.00;;;;;;5104056;27;45455;-78
2022/04/02 05:16:20;;;;;;;1.02;0.70;;;17.50;53.20;;;;;;5106142;27;45338;-78
2022/04/02 05:18:47;;;;;;;0.80;0.50;;;17.50;52.10;;;;;;5100209;27;45444;-78
2022/04/02 05:21:16;;;;;;;0.75;0.50;;;17.50;52.60;;;;;;5109116;27;45215;-78
2022/04/02 05:23:43;;;;;;;0.80;0.50;;;17.40;51.60;;;;;;5109007;27;45353;-78
2022/04/02 05:26:10;;;;;;;1.40;0.70;;;17.40;51.60;;;;;;5106437;27;45258;-78
2022/04/02 05:28:36;;;;;;;0.88;0.38;;;17.40;51.80;;;;;;5105349;27;46447;-78
2022/04/02 05:31:04;;;;;;;0.90;0.60;;;17.40;51.60;;;;;;5108810;27;45387;-78
2022/04/02 05:33:31;;;;;;;0.90;0.60;;;17.40;50.70;;;;;;5121337;27;45256;-78
2022/04/02 05:35:58;;;;;;;0.88;0.65;;;17.40;50.80;;;;;;5107468;27;45327;-78
2022/04/02 05:38:27;;;;;;;1.23;0.60;;;17.40;50.00;;;;;;5106487;27;47426;-78
2022/04/02 05:40:54;;;;;;;1.13;0.60;;;17.40;50.50;;;;;;5108893;27;45311;-78
2022/04/02 05:43:20;;;;;;;1.27;0.68;;;17.40;49.70;;;;;;5107422;27;45256;-78
2022/04/02 05:45:47;;;;;;;0.85;0.73;;;17.40;49.80;;;;;;5104626;27;45232;-78
2022/04/02 05:48:17;;;;;;;0.90;0.55;;;17.40;49.60;;;;;;5096551;27;45360;-78
2022/04/02 05:50:44;;;;;;;0.77;0.60;;;17.40;50.10;;;;;;5108189;27;45365;-78
2022/04/02 05:53:11;;;;;;;1.30;0.52;;;17.40;51.60;;;;;;5103748;27;45537;-78
2022/04/02 05:55:39;;;;;;;0.60;0.50;;;17.40;51.60;;;;;;5105173;27;45519;-78
2022/04/02 05:58:06;;;;;;;0.77;0.60;;;17.50;51.80;;;;;;5108581;27;47100;-78
2022/04/02 06:00:33;;;;;;;1.25;0.60;;;17.40;51.60;;;;;;5104208;27;45352;-78
2022/04/02 06:03:00;;;;;;;1.50;0.60;;;17.40;51.60;;;;;;5099636;27;45235;-78
2022/04/02 06:05:28;;;;;;;1.23;0.60;;;17.50;53.80;;;;;;5107570;27;45448;-78
2022/04/02 06:07:54;;;;;;;2.38;0.75;;;17.50;51.40;;;;;;5104308;27;46467;-78
2022/04/02 06:10:21;;;;;;;0.93;0.65;;;17.50;51.80;;;;;;5092096;27;45448;-78
2022/04/02 06:12:51;;;;;;;2.38;0.80;;;17.50;51.60;;;;;;5100319;27;45213;-78
2022/04/02 06:15:19;;;;;;;1.02;0.50;;;17.50;51.80;;;;;;5103721;27;45547;-78
2022/04/02 06:17:45;;;;;;;1.35;0.77;;;17.40;51.10;;;;;;5098835;27;45569;-79
2022/04/02 06:20:13;;;;;;;0.77;0.52;;;17.40;51.60;;;;;;5101473;27;45169;-78
2022/04/02 06:22:40;;;;;;;1.40;0.60;;;17.40;50.30;;;;;;5095522;27;45424;-78
2022/04/02 06:25:07;;;;;;;2.53;0.80;;;17.40;50.30;;;;;;5102378;27;45395;-78
2022/04/02 06:27:41;;;;;;;1.10;0.70;;;17.30;50.10;;;;;;5104825;27;46222;-78
2022/04/02 06:30:12;;;;;;;1.02;0.70;;;17.40;50.40;;;;;;5104744;27;45903;-79
2022/04/02 06:32:39;;;;;;;1.83;0.73;;;17.30;49.80;;;;;;5100521;27;45329;-78
2022/04/02 06:35:07;;;;;;;1.52;0.88;;;17.30;48.40;;;;;;5106421;27;45143;-78
2022/04/02 06:37:35;;;;;;;1.17;0.77;;;17.30;48.80;;;;;;5093871;27;45514;-78
2022/04/02 06:40:02;;;;;;;1.05;0.63;;;17.20;47.80;;;;;;5106058;27;45327;-78
2022/04/02 06:42:29;;;;;;;1.20;0.80;;;17.20;46.60;;;;;;5109600;27;45261;-78
2022/04/02 06:44:55;;;;;;;1.10;0.60;;;17.30;48.70;;;;;;5116552;27;45446;-78
2022/04/02 06:47:27;;;;;;;0.90;0.50;;;17.30;49.80;;;;;;5106268;27;46607;-78
2022/04/02 06:49:54;;;;;;;1.70;0.60;;;17.30;49.80;;;;;;5104804;27;45264;-78
2022/04/02 06:52:21;;;;;;;0.77;0.52;;;17.30;50.30;;;;;;5101591;27;45331;-78
2022/04/02 06:54:48;;;;;;;1.10;0.80;;;17.30;50.50;;;;;;5098935;27;46015;-78
2022/04/02 06:57:19;;;;;;;1.58;0.68;;;17.40;50.40;;;;;;5102889;27;46399;-78
2022/04/02 06:59:46;;;;;;;0.63;0.52;;;17.40;50.50;;;;;;5104611;27;45375;-78
2022/04/02 07:02:13;;;;;;;0.93;0.60;;;17.40;50.00;;;;;;5104132;27;45159;-78
2022/04/02 07:04:41;;;;;;;1.10;0.60;;;17.40;50.40;;;;;;5107317;27;45328;-78
2022/04/02 07:07:08;;;;;;;1.13;0.77;;;17.40;49.30;;;;;;5103650;27;46190;-78
2022/04/02 07:09:34;;;;;;;3.28;0.80;;;17.40;49.00;;;;;;5105525;27;45272;-78
2022/04/02 07:12:01;;;;;;;1.02;0.60;;;17.40;49.60;;;;;;5108258;27;45248;-78
2022/04/02 07:14:28;;;;;;;1.27;0.70;;;17.40;50.00;;;;;;5108912;27;45154;-78
2022/04/02 07:16:55;;;;;;;0.75;0.50;;;17.30;48.10;;;;;;5105938;27;45245;-78
2022/04/02 07:19:25;;;;;;;1.60;0.90;;;17.30;47.50;;;;;;5107705;27;45283;-78
2022/04/02 07:21:54;;;;;;;2.67;0.70;;;17.30;47.10;;;;;;5093766;27;45729;-78
2022/04/02 07:24:22;;;;;;;1.80;0.70;;;17.30;46.70;;;;;;5108944;27;45473;-78
2022/04/02 07:26:49;;;;;;;1.25;0.60;;;17.30;46.80;;;;;;5106965;27;46470;-78
2022/04/02 07:29:17;;;;;;;1.25;0.63;;;17.30;48.30;;;;;;5105383;27;45318;-78
2022/04/02 07:31:45;;;;;;;1.30;0.60;;;17.30;47.00;;;;;;5108052;27;45237;-78
2022/04/02 07:34:13;;;;;;;0.80;0.50;;;17.30;46.80;;;;;;5105698;27;45607;-78
2022/04/02 07:36:56;;;;;;;1.30;0.60;;;17.30;46.80;;;;;;5107665;27;46592;-78
2022/04/02 07:39:34;;;;;;;1.65;0.60;;;17.30;47.40;;;;;;5105799;27;45386;-78
2022/04/02 07:42:08;;;;;;;1.42;0.73;;;17.30;49.40;;;;;;5108009;27;45429;-78
2022/04/02 07:44:48;;;;;;;1.65;0.70;;;17.40;48.50;;;;;;5108375;27;45504;-78
2022/04/02 07:47:15;;;;;;;1.08;0.50;;;17.40;48.60;;;;;;5106273;27;47407;-78
2022/04/02 07:49:47;;;;;;;1.23;0.50;;;17.40;48.80;;;;;;5106510;27;45308;-79
2022/04/02 07:52:14;;;;;;;1.10;0.60;;;17.40;48.80;;;;;;5106342;27;45157;-78
2022/04/02 07:54:44;;;;;;;0.80;0.50;;;17.40;49.20;;;;;;5113028;27;45392;-78
2022/04/02 07:57:13;;;;;;;0.95;0.40;;;17.40;49.20;;;;;;5124839;27;46402;-78
2022/04/02 07:59:43;;;;;;;1.85;0.65;;;17.40;48.20;;;;;;5127603;27;45179;-78
2022/04/02 08:04:54;;;;;;;1.52;0.70;;;17.40;47.20;;;;;;5086269;28;45283;-79
2022/04/02 08:07:21;;;;;;;1.30;0.50;;;17.40;47.10;;;;;;5102840;27;48383;-78
2022/04/02 08:09:52;;;;;;;0.60;0.50;;;17.40;45.30;;;;;;5104388;27;45702;-78
2022/04/02 08:12:19;;;;;;;0.50;0.40;;;17.40;46.20;;;;;;5107707;27;45183;-78
2022/04/02 08:14:48;;;;;;;1.25;0.63;;;17.40;45.80;;;;;;5107911;27;45353;-78
2022/04/02 08:17:15;;;;;;;0.63;0.50;;;17.40;44.80;;;;;;5106395;27;47104;-78
2022/04/02 08:19:42;;;;;;;0.77;0.60;;;17.40;44.80;;;;;;5106888;27;46399;-78
2022/04/02 08:22:09;;;;;;;1.48;0.70;;;17.30;45.10;;;;;;5107959;27;45254;-78
2022/04/02 08:24:36;;;;;;;0.73;0.60;;;17.30;45.80;;;;;;5107035;27;45207;-78
2022/04/02 08:27:13;;;;;;;2.13;0.70;;;17.30;46.60;;;;;;5107354;27;45187;-78
2022/04/02 08:29:53;;;;;;;1.77;0.70;;;17.30;45.80;;;;;;5106127;27;45341;-78
2022/04/02 08:32:28;;;;;;;1.02;0.63;;;17.30;46.60;;;;;;5090196;27;45564;-78
2022/04/02 08:35:04;;;;;;;1.33;0.60;;;17.30;46.20;;;;;;5106965;27;45273;-78
2022/04/02 08:37:44;;;;;;;1.30;0.70;;;17.40;47.50;;;;;;5109607;27;47945;-78
2022/04/02 08:40:38;;;;;;;1.30;0.88;;;17.40;46.60;;;;;;5109943;27;45718;-78
2022/04/02 08:43:32;;;;;;;0.82;0.55;;;17.40;47.00;;;;;;5108090;27;45166;-79
2022/04/02 08:46:09;;;;;;;2.33;0.90;;;17.50;46.80;;;;;;5075321;27;45567;-78
2022/04/02 08:48:36;;;;;;;1.85;0.60;;;17.50;46.70;;;;;;5109165;27;48334;-78
2022/04/02 08:51:21;;;;;;;1.17;0.70;;;17.50;46.60;;;;;;5110513;27;45229;-78
2022/04/02 08:53:57;;;;;;;1.02;0.50;;;17.50;46.20;;;;;;5109734;27;45242;-78
2022/04/02 08:56:26;;;;;;;1.05;0.60;;;17.50;46.60;;;;;;5110747;27;45409;-78
2022/04/02 08:59:04;;;;;;;1.95;0.60;;;17.50;45.20;;;;;;5108050;27;46379;-78
2022/04/02 09:01:40;;;;;;;1.55;0.80;;;17.50;44.40;;;;;;5111413;27;45883;-78
2022/04/02 09:04:53;;;;;;;1.05;0.47;;;17.50;43.90;;;;;;5123779;27;45199;-78
2022/04/02 09:07:49;;;;;;;0.85;0.57;;;17.50;42.60;;;;;;5108101;27;45480;-78
2022/04/02 09:11:09;;;;;;;1.25;0.63;;;17.50;42.50;;;;;;5108179;27;45268;-79
2022/04/02 09:14:30;;;;;;;0.93;0.65;;;17.50;42.60;;;;;;5110637;27;45193;-78
2022/04/02 09:17:27;;;;;;;1.13;0.70;;;17.50;42.10;;;;;;5109043;27;45191;-79
2022/04/02 09:20:18;;;;;;;1.77;0.90;;;17.50;42.00;;;;;;5109548;27;45221;-78
2022/04/02 09:23:04;;;;;;;1.45;0.60;;;17.50;42.70;;;;;;5108949;27;45192;-78
2022/04/02 09:26:02;;;;;;;1.25;0.60;;;17.50;42.90;;;;;;5109154;27;45189;-78
2022/04/02 09:28:43;;;;;;;1.30;0.65;;;17.50;43.00;;;;;;5107860;27;45321;-78
2022/04/02 09:31:45;;;;;;;0.60;0.52;;;17.50;43.30;;;;;;5110180;27;45397;-79
2022/04/02 09:34:54;;;;;;;1.63;0.70;;;17.50;44.50;;;;;;5107080;27;46520;-78
2022/04/02 09:37:39;;;;;;;1.80;0.80;;;17.50;44.80;;;;;;5107491;27;45173;-78
2022/04/02 09:40:08;;;;;;;1.15;0.65;;;17.50;44.90;;;;;;5108146;27;45277;-78
2022/04/02 09:42:38;;;;;;;1.40;0.50;;;17.50;45.50;;;;;;5110144;27;45310;-78
2022/04/02 09:45:10;;;;;;;1.33;0.60;;;17.50;45.30;;;;;;5106389;27;45169;-78
2022/04/02 09:48:05;;;;;;;0.60;0.60;;;17.50;45.20;;;;;;5109127;27;45151;-78
2022/04/02 09:50:32;;;;;;;1.08;0.65;;;17.50;45.30;;;;;;5107340;27;45273;-79
2022/04/02 09:53:06;;;;;;;1.23;0.73;;;17.60;44.80;;;;;;5110116;27;45347;-78
2022/04/02 09:55:44;;;;;;;1.35;0.70;;;17.50;44.00;;;;;;5108529;27;47052;-78
2022/04/02 09:58:40;;;;;;;1.20;0.70;;;17.50;44.00;;;;;;5110111;27;45231;-78
2022/04/02 10:01:08;;;;;;;1.52;0.50;;;17.50;42.40;;;;;;5106771;27;45739;-78
2022/04/02 10:03:50;;;;;;;1.30;0.73;;;17.50;42.80;;;;;;5109507;27;45254;-79
2022/04/02 10:06:24;;;;;;;1.95;0.82;;;17.50;42.90;;;;;;5105817;27;45599;-78
2022/04/02 10:09:04;;;;;;;1.10;0.75;;;17.50;42.90;;;;;;5107782;27;45198;-78
2022/04/02 10:11:34;;;;;;;1.33;0.60;;;17.50;42.80;;;;;;5108448;27;45287;-78
2022/04/02 10:14:03;;;;;;;0.88;0.55;;;17.40;42.90;;;;;;5116932;27;45165;-79
2022/04/02 10:16:31;;;;;;;0.73;0.68;;;17.40;42.80;;;;;;5129939;27;45516;-79
2022/04/02 10:19:01;;;;;;;1.08;0.80;;;17.40;43.10;;;;;;5110416;27;45446;-78
2022/04/02 10:21:30;;;;;;;1.65;0.75;;;17.40;41.80;;;;;;5108752;27;45219;-79
2022/04/02 10:24:18;;;;;;;2.10;0.80;;;17.40;42.60;;;;;;5108288;27;45217;-79
2022/04/02 10:26:50;;;;;;;1.40;0.70;;;17.50;44.20;;;;;;5109049;27;46592;-78
2022/04/02 10:29:41;;;;;;;0.80;0.60;;;17.50;44.40;;;;;;5106820;27;45300;-78
2022/04/02 10:32:26;;;;;;;1.60;0.80;;;17.50;44.00;;;;;;5105792;27;45390;-78
2022/04/02 10:34:58;;;;;;;1.70;0.80;;;17.50;44.30;;;;;;5107863;27;45117;-78
2022/04/02 10:37:31;;;;;;;0.85;0.70;;;17.50;44.40;;;;;;5107536;27;46460;-78
2022/04/02 10:40:02;;;;;;;1.00;0.68;;;17.50;44.30;;;;;;5106205;27;45257;-78
2022/04/02 10:42:34;;;;;;;0.88;0.60;;;17.50;44.60;;;;;;5109353;27;45347;-79
2022/04/02 10:45:05;;;;;;;1.52;0.80;;;17.50;44.50;;;;;;5105282;27;45324;-78
2022/04/02 10:47:42;;;;;;;0.93;0.70;;;17.50;44.60;;;;;;5105126;27;45946;-78
2022/04/02 10:50:11;;;;;;;1.73;0.80;;;17.50;43.20;;;;;;5107197;27;45507;-78
2022/04/02 10:52:38;;;;;;;0.95;0.80;;;17.50;42.10;;;;;;5108628;27;45312;-78
2022/04/02 10:55:06;;;;;;;1.60;0.82;;;17.50;42.60;;;;;;5108710;27;45381;-78
2022/04/02 10:57:34;;;;;;;0.77;0.50;;;17.50;42.20;;;;;;5103596;27;46390;-78
2022/04/02 11:00:04;;;;;;;2.65;0.70;;;17.40;42.70;;;;;;5095779;27;45327;-78
2022/04/02 11:02:41;;;;;;;1.33;0.70;;;17.40;43.10;;;;;;5100317;27;45295;-78
2022/04/02 11:05:11;;;;;;;1.00;0.68;;;17.40;42.40;;;;;;5104691;27;45450;-78
2022/04/02 11:07:40;;;;;;;1.55;0.75;;;17.40;42.30;;;;;;5096438;27;45532;-78
2022/04/02 11:10:08;;;;;;;0.88;0.70;;;17.40;42.50;;;;;;5098615;27;45689;-78
2022/04/02 11:12:39;;;;;;;3.00;0.80;;;17.50;46.50;;;;;;5091575;27;45799;-78
2022/04/02 11:15:12;;;;;;;1.55;0.80;;;17.50;46.80;;;;;;5103241;27;45414;-78
2022/04/02 11:17:41;;;;;;;2.03;0.75;;;17.50;45.40;;;;;;5101977;27;47937;-78
2022/04/02 11:20:12;;;;;;;2.85;0.82;;;17.50;44.60;;;;;;5100559;27;45727;-79
2022/04/02 11:22:57;;;;;;;3.35;0.90;;;17.50;44.70;;;;;;5101441;27;45339;-79
2022/04/02 11:25:28;;;;;;;1.52;0.98;;;17.50;44.20;;;;;;5108146;27;45331;-79
2022/04/02 11:27:58;;;;;;;2.50;0.70;;;17.60;44.90;;;;;;5104001;27;46427;-78
2022/04/02 11:30:29;;;;;;;1.38;0.80;;;17.50;44.10;;;;;;5103139;27;45285;-78
2022/04/02 11:33:04;;;;;;;1.02;0.70;;;17.50;44.30;;;;;;5101287;27;45266;-79
2022/04/02 11:35:37;;;;;;;1.15;0.60;;;17.50;45.80;;;;;;5102103;27;45301;-79
2022/04/02 11:38:12;;;;;;;1.52;0.80;;;17.50;44.60;;;;;;5101860;27;46108;-78
2022/04/02 11:40:49;;;;;;;2.38;0.93;;;17.50;44.20;;;;;;5100249;27;45247;-78
2022/04/02 11:43:19;;;;;;;1.98;0.82;;;17.50;44.40;;;;;;5102399;27;45424;-79
2022/04/02 11:45:48;;;;;;;2.35;0.90;;;17.50;44.50;;;;;;5097809;27;45228;-79
2022/04/02 11:48:18;;;;;;;0.73;0.65;;;17.50;44.50;;;;;;5097645;27;45491;-78
2022/04/02 11:50:46;;;;;;;2.28;1.10;;;17.50;44.40;;;;;;5091463;27;45339;-78
2022/04/02 11:53:14;;;;;;;1.70;0.80;;;17.50;44.40;;;;;;5102152;27;45189;-78
2022/04/02 11:55:42;;;;;;;1.77;0.95;;;17.50;44.40;;;;;;5100897;27;45254;-78
2022/04/02 11:58:11;;;;;;;3.00;0.90;;;17.50;44.00;;;;;;5102598;27;47540;-79
2022/04/02 12:00:40;;;;;;;3.00;0.80;;;17.50;43.30;;;;;;5103727;27;45275;-78
2022/04/02 12:03:21;;;;;;;1.23;0.85;;;17.50;43.10;;;;;;5094973;27;45463;-78
2022/04/02 12:05:51;;;;;;;1.38;0.95;;;17.40;42.30;;;;;;5087286;27;45397;-78
2022/04/02 12:08:28;;;;;;;1.55;0.82;;;17.40;42.30;;;;;;5095868;27;47184;-78
2022/04/02 12:10:57;;;;;;;1.25;1.00;;;17.40;42.30;;;;;;5108842;27;45246;-77
2022/04/02 12:13:24;;;;;;;2.13;0.88;;;17.40;42.20;;;;;;5110098;27;45413;-78
2022/04/02 12:16:03;;;;;;;1.70;0.90;;;17.40;43.30;;;;;;5106473;27;45507;-78
2022/04/02 12:18:31;;;;;;;0.95;0.82;;;17.40;43.70;;;;;;5099406;27;45313;-78
2022/04/02 12:21:05;;;;;;;1.23;0.90;;;17.40;43.80;;;;;;5108975;27;45274;-78
2022/04/02 12:23:33;;;;;;;1.60;1.00;;;17.40;43.60;;;;;;5107932;27;45293;-78
2022/04/02 12:26:03;;;;;;;2.40;0.80;;;17.30;43.90;;;;;;5111293;27;45190;-78
2022/04/02 12:28:30;;;;;;;1.30;0.77;;;17.40;44.90;;;;;;5108520;27;47981;-78
2022/04/02 12:31:04;;;;;;;0.93;0.70;;;17.40;44.50;;;;;;5110074;27;45235;-78
2022/04/02 12:33:32;;;;;;;0.93;0.80;;;17.40;44.40;;;;;;5121915;27;45190;-78
2022/04/02 12:36:00;;;;;;;1.30;0.90;;;17.40;44.80;;;;;;5113797;27;45216;-78
2022/04/02 12:38:31;;;;;;;0.60;0.52;;;17.40;44.40;;;;;;5108495;27;48027;-78
2022/04/02 12:40:58;;;;;;;1.05;0.77;;;17.40;44.70;;;;;;5110710;27;45446;-78
2022/04/02 12:43:27;;;;;;;1.70;1.00;;;17.40;44.60;;;;;;5110169;27;45209;-78
2022/04/02 12:45:54;;;;;;;0.82;0.75;;;17.50;44.40;;;;;;5111001;27;45556;-78
2022/04/02 12:48:24;;;;;;;0.77;0.68;;;17.50;44.80;;;;;;5107488;27;47450;-78
2022/04/02 12:50:53;;;;;;;1.02;0.88;;;17.40;44.10;;;;;;5110779;27;46504;-77
2022/04/02 12:53:33;;;;;;;0.93;0.65;;;17.40;43.80;;;;;;5110182;27;45539;-78
2022/04/02 12:56:01;;;;;;;0.88;0.73;;;17.40;43.70;;;;;;5109391;27;45188;-77
2022/04/02 12:58:33;;;;;;;1.55;0.95;;;17.40;43.10;;;;;;5109814;27;46194;-78
2022/04/02 13:01:15;;;;;;;0.80;0.70;;;17.40;43.10;;;;;;5110203;27;45650;-78
2022/04/02 13:03:44;;;;;;;1.65;0.95;;;17.40;43.10;;;;;;5107881;27;45383;-78
2022/04/02 13:06:21;;;;;;;0.95;0.77;;;17.40;43.00;;;;;;5105405;27;45682;-78
2022/04/02 13:09:01;;;;;;;0.77;0.68;;;17.40;43.20;;;;;;5107581;27;45682;-78
2022/04/02 13:11:39;;;;;;;1.83;0.93;;;17.40;42.70;;;;;;5110426;27;45163;-78